sensor_id;sensor_type;location;lat;lon;timestamp;temperature;humidity
48043;DHT22;33988;47.992;8.820;2024-01-25T00:01:31;14.60;55.80
48043;DHT22;33988;47.992;8.820;2024-01-25T00:03:58;14.70;55.80
48043;DHT22;33988;47.992;8.820;2024-01-25T00:06:27;14.60;55.80
48043;DHT22;33988;47.992;8.820;2024-01-25T00:08:54;14.60;55.90
48043;DHT22;33988;47.992;8.820;2024-01-25T00:11:21;14.60;55.90
48043;DHT22;33988;47.992;8.820;2024-01-25T00:13:48;14.60;55.90
48043;DHT22;33988;47.992;8.820;2024-01-25T00:16:15;14.60;56.00
48043;DHT22;33988;47.992;8.820;2024-01-25T00:18:44;14.60;56.00
48043;DHT22;33988;47.992;8.820;2024-01-25T00:21:14;14.60;56.00
48043;DHT22;33988;47.992;8.820;2024-01-25T00:23:41;14.60;56.00
48043;DHT22;33988;47.992;8.820;2024-01-25T00:26:08;14.70;56.10
48043;DHT22;33988;47.992;8.820;2024-01-25T00:28:35;14.60;56.00
48043;DHT22;33988;47.992;8.820;2024-01-25T00:31:02;14.60;56.10
48043;DHT22;33988;47.992;8.820;2024-01-25T00:33:29;14.60;56.10
48043;DHT22;33988;47.992;8.820;2024-01-25T00:35:58;14.60;56.10
48043;DHT22;33988;47.992;8.820;2024-01-25T00:38:28;14.70;56.20
48043;DHT22;33988;47.992;8.820;2024-01-25T00:40:55;14.70;56.10
48043;DHT22;33988;47.992;8.820;2024-01-25T00:43:23;14.70;56.10
48043;DHT22;33988;47.992;8.820;2024-01-25T00:45:50;14.70;56.10
48043;DHT22;33988;47.992;8.820;2024-01-25T00:48:18;14.70;56.10
48043;DHT22;33988;47.992;8.820;2024-01-25T00:50:45;14.70;56.10
48043;DHT22;33988;47.992;8.820;2024-01-25T00:53:13;14.70;56.20
48043;DHT22;33988;47.992;8.820;2024-01-25T00:55:40;14.70;56.30
48043;DHT22;33988;47.992;8.820;2024-01-25T00:58:08;14.70;56.30
48043;DHT22;33988;47.992;8.820;2024-01-25T01:00:36;14.70;56.40
48043;DHT22;33988;47.992;8.820;2024-01-25T01:03:03;14.70;56.40
48043;DHT22;33988;47.992;8.820;2024-01-25T01:05:32;14.70;56.40
48043;DHT22;33988;47.992;8.820;2024-01-25T01:07:59;14.70;56.40
48043;DHT22;33988;47.992;8.820;2024-01-25T01:10:29;14.70;56.40
48043;DHT22;33988;47.992;8.820;2024-01-25T01:12:58;14.70;56.40
48043;DHT22;33988;47.992;8.820;2024-01-25T01:15:25;14.70;56.40
48043;DHT22;33988;47.992;8.820;2024-01-25T01:17:52;14.70;56.40
48043;DHT22;33988;47.992;8.820;2024-01-25T01:20:22;14.70;56.40
48043;DHT22;33988;47.992;8.820;2024-01-25T01:22:50;14.70;56.40
48043;DHT22;33988;47.992;8.820;2024-01-25T01:25:20;14.70;56.40
48043;DHT22;33988;47.992;8.820;2024-01-25T01:27:47;14.50;56.60
48043;DHT22;33988;47.992;8.820;2024-01-25T01:30:14;14.70;56.50
48043;DHT22;33988;47.992;8.820;2024-01-25T01:32:41;14.70;56.40
48043;DHT22;33988;47.992;8.820;2024-01-25T01:35:08;14.70;56.50
48043;DHT22;33988;47.992;8.820;2024-01-25T01:37:38;14.70;56.50
48043;DHT22;33988;47.992;8.820;2024-01-25T01:40:10;14.70;56.60
48043;DHT22;33988;47.992;8.820;2024-01-25T01:42:37;14.50;56.80
48043;DHT22;33988;47.992;8.820;2024-01-25T01:45:04;14.70;56.70
48043;DHT22;33988;47.992;8.820;2024-01-25T01:47:32;14.70;56.60
48043;DHT22;33988;47.992;8.820;2024-01-25T01:49:59;14.70;56.60
48043;DHT22;33988;47.992;8.820;2024-01-25T01:52:27;14.70;56.70
48043;DHT22;33988;47.992;8.820;2024-01-25T01:54:57;14.70;56.70
48043;DHT22;33988;47.992;8.820;2024-01-25T01:57:29;14.70;56.60
48043;DHT22;33988;47.992;8.820;2024-01-25T01:59:57;14.70;56.60
48043;DHT22;33988;47.992;8.820;2024-01-25T02:02:27;14.70;56.60
48043;DHT22;33988;47.992;8.820;2024-01-25T02:04:54;14.50;56.80
48043;DHT22;33988;47.992;8.820;2024-01-25T02:07:23;14.60;56.60
48043;DHT22;33988;47.992;8.820;2024-01-25T02:09:50;14.70;56.60
48043;DHT22;33988;47.992;8.820;2024-01-25T02:12:17;14.70;56.60
48043;DHT22;33988;47.992;8.820;2024-01-25T02:14:47;14.70;56.60
48043;DHT22;33988;47.992;8.820;2024-01-25T02:17:16;14.70;56.60
48043;DHT22;33988;47.992;8.820;2024-01-25T02:19:44;14.70;56.60
48043;DHT22;33988;47.992;8.820;2024-01-25T02:24:42;14.70;56.60
48043;DHT22;33988;47.992;8.820;2024-01-25T02:27:09;14.60;57.20
48043;DHT22;33988;47.992;8.820;2024-01-25T02:29:36;14.60;56.60
48043;DHT22;33988;47.992;8.820;2024-01-25T02:32:04;14.60;56.60
48043;DHT22;33988;47.992;8.820;2024-01-25T02:34:33;14.60;56.70
48043;DHT22;33988;47.992;8.820;2024-01-25T02:37:02;14.60;56.70
48043;DHT22;33988;47.992;8.820;2024-01-25T02:39:29;14.60;56.80
48043;DHT22;33988;47.992;8.820;2024-01-25T02:41:58;14.60;56.80
48043;DHT22;33988;47.992;8.820;2024-01-25T02:44:28;14.60;56.80
48043;DHT22;33988;47.992;8.820;2024-01-25T02:46:55;14.60;56.80
48043;DHT22;33988;47.992;8.820;2024-01-25T02:49:22;14.60;56.80
48043;DHT22;33988;47.992;8.820;2024-01-25T02:51:51;14.60;56.80
48043;DHT22;33988;47.992;8.820;2024-01-25T02:54:18;14.60;56.80
48043;DHT22;33988;47.992;8.820;2024-01-25T02:56:48;14.60;56.90
48043;DHT22;33988;47.992;8.820;2024-01-25T02:59:17;14.60;56.80
48043;DHT22;33988;47.992;8.820;2024-01-25T03:01:47;14.60;56.80
48043;DHT22;33988;47.992;8.820;2024-01-25T03:04:15;14.60;56.90
48043;DHT22;33988;47.992;8.820;2024-01-25T03:06:44;14.60;56.90
48043;DHT22;33988;47.992;8.820;2024-01-25T03:09:14;14.60;56.90
48043;DHT22;33988;47.992;8.820;2024-01-25T03:11:41;14.60;56.90
48043;DHT22;33988;47.992;8.820;2024-01-25T03:14:08;14.60;56.90
48043;DHT22;33988;47.992;8.820;2024-01-25T03:16:37;14.60;56.90
48043;DHT22;33988;47.992;8.820;2024-01-25T03:19:04;14.60;56.90
48043;DHT22;33988;47.992;8.820;2024-01-25T03:21:31;14.60;56.90
48043;DHT22;33988;47.992;8.820;2024-01-25T03:23:58;14.60;57.00
48043;DHT22;33988;47.992;8.820;2024-01-25T03:26:28;14.60;57.00
48043;DHT22;33988;47.992;8.820;2024-01-25T03:28:55;14.60;57.00
48043;DHT22;33988;47.992;8.820;2024-01-25T03:31:22;14.60;57.00
48043;DHT22;33988;47.992;8.820;2024-01-25T03:33:49;14.60;57.00
48043;DHT22;33988;47.992;8.820;2024-01-25T03:36:16;14.60;57.00
48043;DHT22;33988;47.992;8.820;2024-01-25T03:38:45;14.60;57.00
48043;DHT22;33988;47.992;8.820;2024-01-25T03:41:12;14.60;57.10
48043;DHT22;33988;47.992;8.820;2024-01-25T03:43:39;14.50;57.00
48043;DHT22;33988;47.992;8.820;2024-01-25T03:46:13;14.60;57.10
48043;DHT22;33988;47.992;8.820;2024-01-25T03:48:43;14.60;57.20
48043;DHT22;33988;47.992;8.820;2024-01-25T03:51:10;14.60;57.10
48043;DHT22;33988;47.992;8.820;2024-01-25T03:53:39;14.50;57.10
48043;DHT22;33988;47.992;8.820;2024-01-25T03:56:12;14.60;57.20
48043;DHT22;33988;47.992;8.820;2024-01-25T03:58:45;14.60;57.20
48043;DHT22;33988;47.992;8.820;2024-01-25T04:01:17;14.50;57.10
48043;DHT22;33988;47.992;8.820;2024-01-25T04:03:44;14.60;57.20
48043;DHT22;33988;47.992;8.820;2024-01-25T04:06:11;14.60;57.20
48043;DHT22;33988;47.992;8.820;2024-01-25T04:08:40;14.60;57.20
48043;DHT22;33988;47.992;8.820;2024-01-25T04:11:07;14.60;57.10
48043;DHT22;33988;47.992;8.820;2024-01-25T04:13:38;14.60;57.20
48043;DHT22;33988;47.992;8.820;2024-01-25T04:16:05;14.50;57.20
48043;DHT22;33988;47.992;8.820;2024-01-25T04:18:32;14.60;57.20
48043;DHT22;33988;47.992;8.820;2024-01-25T04:21:00;14.50;57.10
48043;DHT22;33988;47.992;8.820;2024-01-25T04:23:27;14.50;57.10
48043;DHT22;33988;47.992;8.820;2024-01-25T04:25:54;14.50;57.10
48043;DHT22;33988;47.992;8.820;2024-01-25T04:28:24;14.50;57.20
48043;DHT22;33988;47.992;8.820;2024-01-25T04:30:53;14.50;57.10
48043;DHT22;33988;47.992;8.820;2024-01-25T04:33:23;14.50;57.10
48043;DHT22;33988;47.992;8.820;2024-01-25T04:35:52;14.30;57.30
48043;DHT22;33988;47.992;8.820;2024-01-25T04:38:19;14.50;57.20
48043;DHT22;33988;47.992;8.820;2024-01-25T04:40:48;14.50;57.20
48043;DHT22;33988;47.992;8.820;2024-01-25T04:43:15;14.50;57.20
48043;DHT22;33988;47.992;8.820;2024-01-25T04:45:42;14.50;57.20
48043;DHT22;33988;47.992;8.820;2024-01-25T04:48:10;14.50;57.20
48043;DHT22;33988;47.992;8.820;2024-01-25T04:50:37;14.50;57.20
48043;DHT22;33988;47.992;8.820;2024-01-25T04:53:06;14.50;57.20
48043;DHT22;33988;47.992;8.820;2024-01-25T04:55:35;14.50;57.20
48043;DHT22;33988;47.992;8.820;2024-01-25T04:58:02;14.50;57.20
48043;DHT22;33988;47.992;8.820;2024-01-25T05:00:30;14.50;57.20
48043;DHT22;33988;47.992;8.820;2024-01-25T05:02:57;14.50;57.20
48043;DHT22;33988;47.992;8.820;2024-01-25T05:05:27;14.50;57.20
48043;DHT22;33988;47.992;8.820;2024-01-25T05:07:54;14.50;57.20
48043;DHT22;33988;47.992;8.820;2024-01-25T05:10:21;14.50;57.20
48043;DHT22;33988;47.992;8.820;2024-01-25T05:12:49;14.50;57.20
48043;DHT22;33988;47.992;8.820;2024-01-25T05:15:18;14.50;57.20
48043;DHT22;33988;47.992;8.820;2024-01-25T05:17:48;14.40;57.10
48043;DHT22;33988;47.992;8.820;2024-01-25T05:20:18;14.50;57.20
48043;DHT22;33988;47.992;8.820;2024-01-25T05:22:45;14.40;57.10
48043;DHT22;33988;47.992;8.820;2024-01-25T05:25:12;14.40;57.20
48043;DHT22;33988;47.992;8.820;2024-01-25T05:27:39;14.40;57.20
48043;DHT22;33988;47.992;8.820;2024-01-25T05:30:10;14.40;57.20
48043;DHT22;33988;47.992;8.820;2024-01-25T05:32:41;14.50;57.20
48043;DHT22;33988;47.992;8.820;2024-01-25T05:35:08;14.50;57.20
48043;DHT22;33988;47.992;8.820;2024-01-25T05:37:36;14.20;57.30
48043;DHT22;33988;47.992;8.820;2024-01-25T05:40:03;14.40;57.20
48043;DHT22;33988;47.992;8.820;2024-01-25T05:42:30;14.40;57.20
48043;DHT22;33988;47.992;8.820;2024-01-25T05:45:00;14.40;57.20
48043;DHT22;33988;47.992;8.820;2024-01-25T05:47:29;14.50;57.20
48043;DHT22;33988;47.992;8.820;2024-01-25T05:49:59;14.50;57.20
48043;DHT22;33988;47.992;8.820;2024-01-25T05:52:29;14.40;57.20
48043;DHT22;33988;47.992;8.820;2024-01-25T05:54:58;14.50;57.30
48043;DHT22;33988;47.992;8.820;2024-01-25T05:57:42;14.50;57.20
48043;DHT22;33988;47.992;8.820;2024-01-25T06:00:13;14.50;57.20
48043;DHT22;33988;47.992;8.820;2024-01-25T06:02:47;14.50;57.30
48043;DHT22;33988;47.992;8.820;2024-01-25T06:05:14;14.50;57.30
48043;DHT22;33988;47.992;8.820;2024-01-25T06:07:41;14.50;57.20
48043;DHT22;33988;47.992;8.820;2024-01-25T06:10:08;14.50;57.20
48043;DHT22;33988;47.992;8.820;2024-01-25T06:12:36;14.50;57.20
48043;DHT22;33988;47.992;8.820;2024-01-25T06:15:03;14.50;57.20
48043;DHT22;33988;47.992;8.820;2024-01-25T06:17:31;14.40;57.20
48043;DHT22;33988;47.992;8.820;2024-01-25T06:20:00;14.40;57.20
48043;DHT22;33988;47.992;8.820;2024-01-25T06:22:28;14.40;57.20
48043;DHT22;33988;47.992;8.820;2024-01-25T06:24:55;14.40;57.20
48043;DHT22;33988;47.992;8.820;2024-01-25T06:27:22;14.40;57.20
48043;DHT22;33988;47.992;8.820;2024-01-25T06:29:51;14.40;57.20
48043;DHT22;33988;47.992;8.820;2024-01-25T06:32:18;14.40;57.20
48043;DHT22;33988;47.992;8.820;2024-01-25T06:34:52;14.50;57.20
48043;DHT22;33988;47.992;8.820;2024-01-25T06:37:20;14.40;57.10
48043;DHT22;33988;47.992;8.820;2024-01-25T06:39:50;14.40;57.20
48043;DHT22;33988;47.992;8.820;2024-01-25T06:42:17;14.40;57.80
48043;DHT22;33988;47.992;8.820;2024-01-25T06:44:50;14.40;57.10
48043;DHT22;33988;47.992;8.820;2024-01-25T06:47:17;14.40;57.10
48043;DHT22;33988;47.992;8.820;2024-01-25T06:49:47;14.40;57.10
48043;DHT22;33988;47.992;8.820;2024-01-25T06:52:18;14.40;57.10
48043;DHT22;33988;47.992;8.820;2024-01-25T06:54:48;14.50;57.20
48043;DHT22;33988;47.992;8.820;2024-01-25T06:57:15;14.40;57.20
48043;DHT22;33988;47.992;8.820;2024-01-25T06:59:42;14.40;57.20
48043;DHT22;33988;47.992;8.820;2024-01-25T07:02:13;14.40;57.20
48043;DHT22;33988;47.992;8.820;2024-01-25T07:04:41;14.40;57.10
48043;DHT22;33988;47.992;8.820;2024-01-25T07:07:11;14.40;57.20
48043;DHT22;33988;47.992;8.820;2024-01-25T07:09:41;14.40;57.20
48043;DHT22;33988;47.992;8.820;2024-01-25T07:12:07;14.40;57.80
48043;DHT22;33988;47.992;8.820;2024-01-25T07:14:35;14.40;57.20
48043;DHT22;33988;47.992;8.820;2024-01-25T07:17:02;14.40;57.20
48043;DHT22;33988;47.992;8.820;2024-01-25T07:19:29;14.40;57.20
48043;DHT22;33988;47.992;8.820;2024-01-25T07:21:56;14.40;57.20
48043;DHT22;33988;47.992;8.820;2024-01-25T07:24:23;14.40;57.20
48043;DHT22;33988;47.992;8.820;2024-01-25T07:26:52;14.40;57.20
48043;DHT22;33988;47.992;8.820;2024-01-25T07:29:22;14.40;57.20
48043;DHT22;33988;47.992;8.820;2024-01-25T07:31:49;14.40;57.30
48043;DHT22;33988;47.992;8.820;2024-01-25T07:34:16;14.40;57.30
48043;DHT22;33988;47.992;8.820;2024-01-25T07:36:43;14.40;57.30
48043;DHT22;33988;47.992;8.820;2024-01-25T07:39:17;14.40;57.30
48043;DHT22;33988;47.992;8.820;2024-01-25T07:41:44;14.40;57.30
48043;DHT22;33988;47.992;8.820;2024-01-25T07:44:11;14.40;57.30
48043;DHT22;33988;47.992;8.820;2024-01-25T07:46:39;14.40;57.40
48043;DHT22;33988;47.992;8.820;2024-01-25T07:49:09;14.40;57.40
48043;DHT22;33988;47.992;8.820;2024-01-25T07:51:39;14.40;57.40
48043;DHT22;33988;47.992;8.820;2024-01-25T07:54:10;14.40;57.40
48043;DHT22;33988;47.992;8.820;2024-01-25T07:56:41;14.40;57.40
48043;DHT22;33988;47.992;8.820;2024-01-25T07:59:08;14.40;57.40
48043;DHT22;33988;47.992;8.820;2024-01-25T08:01:38;14.40;57.40
48043;DHT22;33988;47.992;8.820;2024-01-25T08:04:07;14.40;57.40
48043;DHT22;33988;47.992;8.820;2024-01-25T08:06:35;14.40;57.40
48043;DHT22;33988;47.992;8.820;2024-01-25T08:09:04;14.40;57.40
48043;DHT22;33988;47.992;8.820;2024-01-25T08:11:31;14.30;57.30
48043;DHT22;33988;47.992;8.820;2024-01-25T08:13:58;14.30;57.30
48043;DHT22;33988;47.992;8.820;2024-01-25T08:16:25;14.30;57.30
48043;DHT22;33988;47.992;8.820;2024-01-25T08:18:52;14.30;57.40
48043;DHT22;33988;47.992;8.820;2024-01-25T08:21:19;14.30;57.40
48043;DHT22;33988;47.992;8.820;2024-01-25T08:23:51;14.30;57.40
48043;DHT22;33988;47.992;8.820;2024-01-25T08:26:23;14.30;57.40
48043;DHT22;33988;47.992;8.820;2024-01-25T08:28:52;14.30;57.40
48043;DHT22;33988;47.992;8.820;2024-01-25T08:31:21;14.30;57.40
48043;DHT22;33988;47.992;8.820;2024-01-25T08:33:49;14.30;57.40
48043;DHT22;33988;47.992;8.820;2024-01-25T08:36:19;14.30;57.40
48043;DHT22;33988;47.992;8.820;2024-01-25T08:38:49;14.30;57.40
48043;DHT22;33988;47.992;8.820;2024-01-25T08:41:16;14.30;57.40
48043;DHT22;33988;47.992;8.820;2024-01-25T08:43:43;14.30;57.40
48043;DHT22;33988;47.992;8.820;2024-01-25T08:46:14;14.30;57.40
48043;DHT22;33988;47.992;8.820;2024-01-25T08:48:42;14.30;57.40
48043;DHT22;33988;47.992;8.820;2024-01-25T08:51:12;14.30;57.40
48043;DHT22;33988;47.992;8.820;2024-01-25T08:53:44;14.30;57.50
48043;DHT22;33988;47.992;8.820;2024-01-25T08:56:11;14.30;57.50
48043;DHT22;33988;47.992;8.820;2024-01-25T08:58:41;14.30;57.50
48043;DHT22;33988;47.992;8.820;2024-01-25T09:01:08;14.30;57.50
48043;DHT22;33988;47.992;8.820;2024-01-25T09:03:35;14.30;57.50
48043;DHT22;33988;47.992;8.820;2024-01-25T09:06:05;14.30;57.60
48043;DHT22;33988;47.992;8.820;2024-01-25T09:08:55;14.30;57.60
48043;DHT22;33988;47.992;8.820;2024-01-25T09:11:30;14.20;57.70
48043;DHT22;33988;47.992;8.820;2024-01-25T09:13:57;14.30;57.70
48043;DHT22;33988;47.992;8.820;2024-01-25T09:16:24;14.30;57.80
48043;DHT22;33988;47.992;8.820;2024-01-25T09:18:51;14.30;57.80
48043;DHT22;33988;47.992;8.820;2024-01-25T09:21:18;14.30;57.90
48043;DHT22;33988;47.992;8.820;2024-01-25T09:23:47;14.40;58.00
48043;DHT22;33988;47.992;8.820;2024-01-25T09:26:14;14.40;58.00
48043;DHT22;33988;47.992;8.820;2024-01-25T09:28:44;14.40;58.00
48043;DHT22;33988;47.992;8.820;2024-01-25T09:31:16;14.40;58.10
48043;DHT22;33988;47.992;8.820;2024-01-25T09:33:47;14.50;58.10
48043;DHT22;33988;47.992;8.820;2024-01-25T09:36:17;14.50;58.10
48043;DHT22;33988;47.992;8.820;2024-01-25T09:38:44;14.60;58.10
48043;DHT22;33988;47.992;8.820;2024-01-25T09:41:11;14.60;58.10
48043;DHT22;33988;47.992;8.820;2024-01-25T09:43:41;14.60;58.00
48043;DHT22;33988;47.992;8.820;2024-01-25T09:46:12;14.60;58.00
48043;DHT22;33988;47.992;8.820;2024-01-25T09:48:43;14.60;58.00
48043;DHT22;33988;47.992;8.820;2024-01-25T09:51:13;14.70;58.00
48043;DHT22;33988;47.992;8.820;2024-01-25T09:53:43;14.70;58.10
48043;DHT22;33988;47.992;8.820;2024-01-25T09:56:12;14.80;58.10
48043;DHT22;33988;47.992;8.820;2024-01-25T09:58:41;14.60;58.10
48043;DHT22;33988;47.992;8.820;2024-01-25T10:01:11;14.80;58.10
48043;DHT22;33988;47.992;8.820;2024-01-25T10:03:42;14.80;58.00
48043;DHT22;33988;47.992;8.820;2024-01-25T10:06:11;14.80;58.00
48043;DHT22;33988;47.992;8.820;2024-01-25T10:08:39;14.90;58.80
48043;DHT22;33988;47.992;8.820;2024-01-25T10:11:09;14.90;58.10
48043;DHT22;33988;47.992;8.820;2024-01-25T10:13:41;14.90;58.10
48043;DHT22;33988;47.992;8.820;2024-01-25T10:16:15;14.80;58.10
48043;DHT22;33988;47.992;8.820;2024-01-25T10:18:48;14.90;58.10
48043;DHT22;33988;47.992;8.820;2024-01-25T10:21:17;15.00;58.10
48043;DHT22;33988;47.992;8.820;2024-01-25T10:23:46;15.00;58.10
48043;DHT22;33988;47.992;8.820;2024-01-25T10:26:17;15.10;58.80
48043;DHT22;33988;47.992;8.820;2024-01-25T10:28:55;15.10;58.10
48043;DHT22;33988;47.992;8.820;2024-01-25T10:31:29;15.10;58.00
48043;DHT22;33988;47.992;8.820;2024-01-25T10:33:59;15.20;58.00
48043;DHT22;33988;47.992;8.820;2024-01-25T10:36:31;15.20;57.90
48043;DHT22;33988;47.992;8.820;2024-01-25T10:39:03;15.20;57.80
48043;DHT22;33988;47.992;8.820;2024-01-25T10:41:36;15.20;57.80
48043;DHT22;33988;47.992;8.820;2024-01-25T10:44:04;15.10;57.80
48043;DHT22;33988;47.992;8.820;2024-01-25T10:46:34;15.20;57.90
48043;DHT22;33988;47.992;8.820;2024-01-25T10:49:04;15.20;58.00
48043;DHT22;33988;47.992;8.820;2024-01-25T10:51:35;15.20;58.00
48043;DHT22;33988;47.992;8.820;2024-01-25T10:54:02;15.20;58.40
48043;DHT22;33988;47.992;8.820;2024-01-25T10:56:33;15.20;58.00
48043;DHT22;33988;47.992;8.820;2024-01-25T10:59:04;15.30;58.00
48043;DHT22;33988;47.992;8.820;2024-01-25T11:01:34;15.30;58.00
48043;DHT22;33988;47.992;8.820;2024-01-25T11:04:02;15.30;58.00
48043;DHT22;33988;47.992;8.820;2024-01-25T11:06:30;15.30;57.90
48043;DHT22;33988;47.992;8.820;2024-01-25T11:09:05;15.30;57.90
48043;DHT22;33988;47.992;8.820;2024-01-25T11:11:35;15.30;58.00
48043;DHT22;33988;47.992;8.820;2024-01-25T11:14:14;15.30;58.10
48043;DHT22;33988;47.992;8.820;2024-01-25T11:16:46;15.30;58.10
48043;DHT22;33988;47.992;8.820;2024-01-25T11:19:21;15.30;58.10
48043;DHT22;33988;47.992;8.820;2024-01-25T11:21:52;15.40;58.20
48043;DHT22;33988;47.992;8.820;2024-01-25T11:24:28;15.40;58.20
48043;DHT22;33988;47.992;8.820;2024-01-25T11:26:55;15.40;58.30
48043;DHT22;33988;47.992;8.820;2024-01-25T11:29:25;15.50;58.30
48043;DHT22;33988;47.992;8.820;2024-01-25T11:31:53;15.50;59.00
48043;DHT22;33988;47.992;8.820;2024-01-25T11:34:22;15.50;58.30
48043;DHT22;33988;47.992;8.820;2024-01-25T11:36:52;15.60;58.30
48043;DHT22;33988;47.992;8.820;2024-01-25T11:39:23;15.60;58.30
48043;DHT22;33988;47.992;8.820;2024-01-25T11:41:51;15.60;58.20
48043;DHT22;33988;47.992;8.820;2024-01-25T11:44:18;15.60;58.20
48043;DHT22;33988;47.992;8.820;2024-01-25T11:46:48;15.60;58.20
48043;DHT22;33988;47.992;8.820;2024-01-25T11:49:15;15.70;58.20
48043;DHT22;33988;47.992;8.820;2024-01-25T11:51:47;15.70;58.20
48043;DHT22;33988;47.992;8.820;2024-01-25T11:54:14;15.70;58.20
48043;DHT22;33988;47.992;8.820;2024-01-25T11:56:42;15.70;58.20
48043;DHT22;33988;47.992;8.820;2024-01-25T11:59:10;15.70;58.20
48043;DHT22;33988;47.992;8.820;2024-01-25T12:01:42;15.70;58.20
48043;DHT22;33988;47.992;8.820;2024-01-25T12:04:12;15.80;58.30
48043;DHT22;33988;47.992;8.820;2024-01-25T12:06:44;15.80;58.30
48043;DHT22;33988;47.992;8.820;2024-01-25T12:09:15;15.80;58.30
48043;DHT22;33988;47.992;8.820;2024-01-25T12:11:48;15.80;59.00
48043;DHT22;33988;47.992;8.820;2024-01-25T12:14:16;15.80;59.00
48043;DHT22;33988;47.992;8.820;2024-01-25T12:16:43;15.80;58.30
48043;DHT22;33988;47.992;8.820;2024-01-25T12:19:10;15.90;58.30
48043;DHT22;33988;47.992;8.820;2024-01-25T12:21:38;15.90;58.30
48043;DHT22;33988;47.992;8.820;2024-01-25T12:24:07;15.90;58.20
48043;DHT22;33988;47.992;8.820;2024-01-25T12:26:37;15.90;58.10
48043;DHT22;33988;47.992;8.820;2024-01-25T12:29:06;15.90;58.10
48043;DHT22;33988;47.992;8.820;2024-01-25T12:31:34;15.90;58.00
48043;DHT22;33988;47.992;8.820;2024-01-25T12:34:01;15.90;58.00
48043;DHT22;33988;47.992;8.820;2024-01-25T12:36:29;16.00;58.10
48043;DHT22;33988;47.992;8.820;2024-01-25T12:39:02;15.90;58.00
48043;DHT22;33988;47.992;8.820;2024-01-25T12:41:29;15.90;58.00
48043;DHT22;33988;47.992;8.820;2024-01-25T12:43:57;16.00;58.00
48043;DHT22;33988;47.992;8.820;2024-01-25T12:46:27;16.00;58.00
48043;DHT22;33988;47.992;8.820;2024-01-25T12:48:54;16.00;58.00
48043;DHT22;33988;47.992;8.820;2024-01-25T12:51:23;16.00;58.00
48043;DHT22;33988;47.992;8.820;2024-01-25T12:53:50;16.00;58.00
48043;DHT22;33988;47.992;8.820;2024-01-25T12:56:22;16.00;58.00
48043;DHT22;33988;47.992;8.820;2024-01-25T12:58:49;16.00;58.00
48043;DHT22;33988;47.992;8.820;2024-01-25T13:01:17;16.00;58.00
48043;DHT22;33988;47.992;8.820;2024-01-25T13:03:47;16.00;58.00
48043;DHT22;33988;47.992;8.820;2024-01-25T13:06:15;16.00;58.00
48043;DHT22;33988;47.992;8.820;2024-01-25T13:08:43;16.00;58.00
48043;DHT22;33988;47.992;8.820;2024-01-25T13:11:13;16.00;58.00
48043;DHT22;33988;47.992;8.820;2024-01-25T13:13:40;16.00;58.00
48043;DHT22;33988;47.992;8.820;2024-01-25T13:16:07;16.10;58.00
48043;DHT22;33988;47.992;8.820;2024-01-25T13:18:36;16.10;58.00
48043;DHT22;33988;47.992;8.820;2024-01-25T13:21:04;16.10;57.90
48043;DHT22;33988;47.992;8.820;2024-01-25T13:23:34;16.10;58.00
48043;DHT22;33988;47.992;8.820;2024-01-25T13:26:03;16.10;58.00
48043;DHT22;33988;47.992;8.820;2024-01-25T13:28:36;16.10;58.00
48043;DHT22;33988;47.992;8.820;2024-01-25T13:31:03;16.10;58.00
48043;DHT22;33988;47.992;8.820;2024-01-25T13:33:30;16.10;58.00
48043;DHT22;33988;47.992;8.820;2024-01-25T13:35:57;16.10;58.00
48043;DHT22;33988;47.992;8.820;2024-01-25T13:38:24;16.10;58.00
48043;DHT22;33988;47.992;8.820;2024-01-25T13:40:54;16.10;58.00
48043;DHT22;33988;47.992;8.820;2024-01-25T13:43:23;16.10;58.00
48043;DHT22;33988;47.992;8.820;2024-01-25T13:45:55;16.10;58.00
48043;DHT22;33988;47.992;8.820;2024-01-25T13:48:24;16.10;58.00
48043;DHT22;33988;47.992;8.820;2024-01-25T13:50:56;16.10;58.70
48043;DHT22;33988;47.992;8.820;2024-01-25T13:53:25;16.10;58.00
48043;DHT22;33988;47.992;8.820;2024-01-25T13:55:56;15.90;58.10
48043;DHT22;33988;47.992;8.820;2024-01-25T13:58:26;16.10;58.00
48043;DHT22;33988;47.992;8.820;2024-01-25T14:00:53;16.10;57.90
48043;DHT22;33988;47.992;8.820;2024-01-25T14:03:20;16.10;57.90
48043;DHT22;33988;47.992;8.820;2024-01-25T14:05:47;16.20;58.20
48043;DHT22;33988;47.992;8.820;2024-01-25T14:08:14;16.20;57.90
48043;DHT22;33988;47.992;8.820;2024-01-25T14:10:44;16.20;58.00
48043;DHT22;33988;47.992;8.820;2024-01-25T14:13:11;16.20;58.00
48043;DHT22;33988;47.992;8.820;2024-01-25T14:15:38;16.20;58.00
48043;DHT22;33988;47.992;8.820;2024-01-25T14:18:06;16.10;57.90
48043;DHT22;33988;47.992;8.820;2024-01-25T14:20:35;16.10;57.90
48043;DHT22;33988;47.992;8.820;2024-01-25T14:23:04;16.10;58.00
48043;DHT22;33988;47.992;8.820;2024-01-25T14:25:31;16.10;58.00
48043;DHT22;33988;47.992;8.820;2024-01-25T14:27:58;16.20;58.00
48043;DHT22;33988;47.992;8.820;2024-01-25T14:30:32;16.20;58.00
48043;DHT22;33988;47.992;8.820;2024-01-25T14:32:59;16.10;57.90
48043;DHT22;33988;47.992;8.820;2024-01-25T14:35:26;16.10;57.90
48043;DHT22;33988;47.992;8.820;2024-01-25T14:37:56;16.10;58.00
48043;DHT22;33988;47.992;8.820;2024-01-25T14:40:25;16.10;57.90
48043;DHT22;33988;47.992;8.820;2024-01-25T14:43:12;16.10;58.00
48043;DHT22;33988;47.992;8.820;2024-01-25T14:45:42;16.10;58.00
48043;DHT22;33988;47.992;8.820;2024-01-25T14:48:14;16.10;58.00
48043;DHT22;33988;47.992;8.820;2024-01-25T14:50:46;16.10;58.00
48043;DHT22;33988;47.992;8.820;2024-01-25T14:53:15;16.10;57.90
48043;DHT22;33988;47.992;8.820;2024-01-25T14:55:45;16.10;57.90
48043;DHT22;33988;47.992;8.820;2024-01-25T14:58:13;16.10;58.00
48043;DHT22;33988;47.992;8.820;2024-01-25T15:00:41;16.10;57.90
48043;DHT22;33988;47.992;8.820;2024-01-25T15:03:08;16.10;58.00
48043;DHT22;33988;47.992;8.820;2024-01-25T15:05:35;16.10;57.90
48043;DHT22;33988;47.992;8.820;2024-01-25T15:08:02;16.10;57.90
48043;DHT22;33988;47.992;8.820;2024-01-25T15:10:30;16.10;58.00
48043;DHT22;33988;47.992;8.820;2024-01-25T15:12:59;16.10;58.00
48043;DHT22;33988;47.992;8.820;2024-01-25T15:15:28;16.10;58.00
48043;DHT22;33988;47.992;8.820;2024-01-25T15:17:56;16.00;58.00
48043;DHT22;33988;47.992;8.820;2024-01-25T15:20:24;16.10;58.10
48043;DHT22;33988;47.992;8.820;2024-01-25T15:22:54;16.10;58.10
48043;DHT22;33988;47.992;8.820;2024-01-25T15:25:24;16.10;58.10
48043;DHT22;33988;47.992;8.820;2024-01-25T15:27:53;16.00;58.20
48043;DHT22;33988;47.992;8.820;2024-01-25T15:30:20;16.00;58.20
48043;DHT22;33988;47.992;8.820;2024-01-25T15:32:49;16.00;58.20
48043;DHT22;33988;47.992;8.820;2024-01-25T15:35:19;16.00;58.20
48043;DHT22;33988;47.992;8.820;2024-01-25T15:37:46;16.00;58.20
48043;DHT22;33988;47.992;8.820;2024-01-25T15:40:13;16.00;58.20
48043;DHT22;33988;47.992;8.820;2024-01-25T15:42:47;16.00;58.20